sensor_id;sensor_type;location;lat;lon;timestamp;P1;durP1;ratioP1;P2;durP2;ratioP2
66946;SDS011;53853;51.982;5.928;2023-03-21T00:02:14;15.75;;;12.15;;
66946;SDS011;53853;51.982;5.928;2023-03-21T00:04:44;24.13;;;16.92;;
66946;SDS011;53853;51.982;5.928;2023-03-21T00:07:14;25.58;;;15.18;;
66946;SDS011;53853;51.982;5.928;2023-03-21T00:09:44;18.42;;;13.50;;
66946;SDS011;53853;51.982;5.928;2023-03-21T00:12:14;23.90;;;16.30;;
66946;SDS011;53853;51.982;5.928;2023-03-21T00:14:46;25.10;;;17.67;;
66946;SDS011;53853;51.982;5.928;2023-03-21T00:17:21;23.35;;;15.27;;
66946;SDS011;53853;51.982;5.928;2023-03-21T00:19:57;19.55;;;13.00;;
66946;SDS011;53853;51.982;5.928;2023-03-21T00:22:29;16.55;;;13.18;;
66946;SDS011;53853;51.982;5.928;2023-03-21T00:25:01;27.63;;;20.50;;
66946;SDS011;53853;51.982;5.928;2023-03-21T00:27:33;27.33;;;19.75;;
66946;SDS011;53853;51.982;5.928;2023-03-21T00:30:03;26.20;;;20.60;;
66946;SDS011;53853;51.982;5.928;2023-03-21T00:32:36;18.52;;;16.58;;
66946;SDS011;53853;51.982;5.928;2023-03-21T00:35:07;19.80;;;17.13;;
66946;SDS011;53853;51.982;5.928;2023-03-21T00:37:37;19.40;;;14.40;;
66946;SDS011;53853;51.982;5.928;2023-03-21T00:40:10;25.65;;;20.48;;
66946;SDS011;53853;51.982;5.928;2023-03-21T00:42:40;21.88;;;18.58;;
66946;SDS011;53853;51.982;5.928;2023-03-21T00:45:10;21.02;;;16.90;;
66946;SDS011;53853;51.982;5.928;2023-03-21T00:47:44;26.45;;;19.55;;
66946;SDS011;53853;51.982;5.928;2023-03-21T00:50:15;20.55;;;17.65;;
66946;SDS011;53853;51.982;5.928;2023-03-21T00:52:45;20.25;;;16.88;;
66946;SDS011;53853;51.982;5.928;2023-03-21T00:55:16;27.33;;;18.15;;
66946;SDS011;53853;51.982;5.928;2023-03-21T00:57:46;20.88;;;14.20;;
66946;SDS011;53853;51.982;5.928;2023-03-21T01:00:18;24.60;;;18.63;;
66946;SDS011;53853;51.982;5.928;2023-03-21T01:02:50;19.63;;;15.82;;
66946;SDS011;53853;51.982;5.928;2023-03-21T01:05:31;21.08;;;15.65;;
66946;SDS011;53853;51.982;5.928;2023-03-21T01:08:18;21.25;;;16.92;;
66946;SDS011;53853;51.982;5.928;2023-03-21T01:10:50;22.63;;;17.17;;
66946;SDS011;53853;51.982;5.928;2023-03-21T01:13:21;18.88;;;15.15;;
66946;SDS011;53853;51.982;5.928;2023-03-21T01:15:53;17.52;;;14.27;;
66946;SDS011;53853;51.982;5.928;2023-03-21T01:18:27;19.95;;;13.75;;
66946;SDS011;53853;51.982;5.928;2023-03-21T01:20:58;20.13;;;15.45;;
66946;SDS011;53853;51.982;5.928;2023-03-21T01:23:29;24.17;;;18.10;;
66946;SDS011;53853;51.982;5.928;2023-03-21T01:25:59;26.00;;;17.50;;
66946;SDS011;53853;51.982;5.928;2023-03-21T01:28:29;15.70;;;14.13;;
66946;SDS011;53853;51.982;5.928;2023-03-21T01:31:00;16.58;;;14.75;;
66946;SDS011;53853;51.982;5.928;2023-03-21T01:33:33;16.95;;;15.20;;
66946;SDS011;53853;51.982;5.928;2023-03-21T01:36:04;26.55;;;16.23;;
66946;SDS011;53853;51.982;5.928;2023-03-21T01:38:34;21.60;;;16.60;;
66946;SDS011;53853;51.982;5.928;2023-03-21T01:41:04;21.63;;;16.38;;
66946;SDS011;53853;51.982;5.928;2023-03-21T01:43:35;15.77;;;14.15;;
66946;SDS011;53853;51.982;5.928;2023-03-21T01:46:09;22.33;;;18.13;;
66946;SDS011;53853;51.982;5.928;2023-03-21T01:49:07;21.58;;;15.57;;
66946;SDS011;53853;51.982;5.928;2023-03-21T01:51:44;15.80;;;13.18;;
66946;SDS011;53853;51.982;5.928;2023-03-21T01:54:19;20.35;;;15.15;;
66946;SDS011;53853;51.982;5.928;2023-03-21T01:56:52;21.67;;;15.70;;
66946;SDS011;53853;51.982;5.928;2023-03-21T01:59:27;16.60;;;13.52;;
66946;SDS011;53853;51.982;5.928;2023-03-21T02:02:22;18.65;;;14.77;;
66946;SDS011;53853;51.982;5.928;2023-03-21T02:05:25;21.67;;;16.67;;
66946;SDS011;53853;51.982;5.928;2023-03-21T02:08:03;15.90;;;12.80;;
66946;SDS011;53853;51.982;5.928;2023-03-21T02:10:33;19.77;;;15.10;;
66946;SDS011;53853;51.982;5.928;2023-03-21T02:13:07;16.73;;;14.95;;
66946;SDS011;53853;51.982;5.928;2023-03-21T02:15:39;20.42;;;13.18;;
66946;SDS011;53853;51.982;5.928;2023-03-21T02:18:23;14.63;;;12.63;;
66946;SDS011;53853;51.982;5.928;2023-03-21T02:21:11;19.08;;;14.68;;
66946;SDS011;53853;51.982;5.928;2023-03-21T02:27:01;18.02;;;15.57;;
66946;SDS011;53853;51.982;5.928;2023-03-21T02:29:54;21.63;;;18.08;;
66946;SDS011;53853;51.982;5.928;2023-03-21T02:32:51;19.80;;;15.55;;
66946;SDS011;53853;51.982;5.928;2023-03-21T02:35:33;19.60;;;14.98;;
66946;SDS011;53853;51.982;5.928;2023-03-21T02:38:21;15.82;;;14.18;;
66946;SDS011;53853;51.982;5.928;2023-03-21T02:40:58;18.30;;;16.30;;
66946;SDS011;53853;51.982;5.928;2023-03-21T02:43:34;22.65;;;18.00;;
66946;SDS011;53853;51.982;5.928;2023-03-21T02:46:13;19.13;;;16.00;;
66946;SDS011;53853;51.982;5.928;2023-03-21T02:48:48;17.52;;;14.25;;
66946;SDS011;53853;51.982;5.928;2023-03-21T02:51:22;24.58;;;18.10;;
66946;SDS011;53853;51.982;5.928;2023-03-21T02:53:59;20.15;;;15.80;;
66946;SDS011;53853;51.982;5.928;2023-03-21T02:56:34;21.08;;;16.58;;
66946;SDS011;53853;51.982;5.928;2023-03-21T02:59:05;21.13;;;17.80;;
66946;SDS011;53853;51.982;5.928;2023-03-21T03:01:36;16.90;;;14.68;;
66946;SDS011;53853;51.982;5.928;2023-03-21T03:04:16;18.20;;;15.40;;
66946;SDS011;53853;51.982;5.928;2023-03-21T03:06:52;17.80;;;13.40;;
66946;SDS011;53853;51.982;5.928;2023-03-21T03:09:47;21.77;;;17.38;;
66946;SDS011;53853;51.982;5.928;2023-03-21T03:12:32;20.48;;;16.20;;
66946;SDS011;53853;51.982;5.928;2023-03-21T03:15:12;23.08;;;15.80;;
66946;SDS011;53853;51.982;5.928;2023-03-21T03:17:56;18.27;;;15.25;;
66946;SDS011;53853;51.982;5.928;2023-03-21T03:20:37;19.67;;;15.05;;
66946;SDS011;53853;51.982;5.928;2023-03-21T03:23:16;18.50;;;13.68;;
66946;SDS011;53853;51.982;5.928;2023-03-21T03:25:55;20.27;;;15.00;;
66946;SDS011;53853;51.982;5.928;2023-03-21T03:28:30;23.48;;;15.13;;
66946;SDS011;53853;51.982;5.928;2023-03-21T03:31:11;20.75;;;13.55;;
66946;SDS011;53853;51.982;5.928;2023-03-21T03:33:52;20.27;;;16.67;;
66946;SDS011;53853;51.982;5.928;2023-03-21T03:36:28;18.02;;;13.93;;
66946;SDS011;53853;51.982;5.928;2023-03-21T03:39:08;17.08;;;13.80;;
66946;SDS011;53853;51.982;5.928;2023-03-21T03:41:47;20.02;;;14.95;;
66946;SDS011;53853;51.982;5.928;2023-03-21T03:44:22;23.00;;;16.55;;
66946;SDS011;53853;51.982;5.928;2023-03-21T03:46:59;20.05;;;14.52;;
66946;SDS011;53853;51.982;5.928;2023-03-21T03:49:35;18.13;;;14.13;;
66946;SDS011;53853;51.982;5.928;2023-03-21T03:52:11;21.20;;;15.07;;
66946;SDS011;53853;51.982;5.928;2023-03-21T03:54:51;19.83;;;14.82;;
66946;SDS011;53853;51.982;5.928;2023-03-21T03:57:26;19.58;;;15.15;;
66946;SDS011;53853;51.982;5.928;2023-03-21T03:59:57;14.63;;;11.83;;
66946;SDS011;53853;51.982;5.928;2023-03-21T04:02:42;13.75;;;10.55;;
66946;SDS011;53853;51.982;5.928;2023-03-21T04:05:17;14.13;;;9.77;;
66946;SDS011;53853;51.982;5.928;2023-03-21T04:07:48;21.88;;;14.52;;
66946;SDS011;53853;51.982;5.928;2023-03-21T04:10:26;16.15;;;11.52;;
66946;SDS011;53853;51.982;5.928;2023-03-21T04:12:59;17.50;;;12.35;;
66946;SDS011;53853;51.982;5.928;2023-03-21T04:15:33;16.65;;;9.90;;
66946;SDS011;53853;51.982;5.928;2023-03-21T04:18:10;14.93;;;10.65;;
66946;SDS011;53853;51.982;5.928;2023-03-21T04:20:41;15.02;;;11.00;;
66946;SDS011;53853;51.982;5.928;2023-03-21T04:23:13;18.85;;;12.05;;
66946;SDS011;53853;51.982;5.928;2023-03-21T04:25:45;17.10;;;10.98;;
66946;SDS011;53853;51.982;5.928;2023-03-21T04:28:18;18.83;;;10.05;;
66946;SDS011;53853;51.982;5.928;2023-03-21T04:30:53;9.85;;;7.35;;
66946;SDS011;53853;51.982;5.928;2023-03-21T04:33:24;11.65;;;7.32;;
66946;SDS011;53853;51.982;5.928;2023-03-21T04:35:55;10.13;;;7.20;;
66946;SDS011;53853;51.982;5.928;2023-03-21T04:38:29;15.07;;;9.23;;
66946;SDS011;53853;51.982;5.928;2023-03-21T04:41:02;13.88;;;9.70;;
66946;SDS011;53853;51.982;5.928;2023-03-21T04:43:35;12.90;;;8.90;;
66946;SDS011;53853;51.982;5.928;2023-03-21T04:46:05;13.23;;;9.32;;
66946;SDS011;53853;51.982;5.928;2023-03-21T04:48:35;9.88;;;7.05;;
66946;SDS011;53853;51.982;5.928;2023-03-21T04:51:06;9.15;;;7.03;;
66946;SDS011;53853;51.982;5.928;2023-03-21T04:53:36;9.80;;;7.75;;
66946;SDS011;53853;51.982;5.928;2023-03-21T04:56:08;14.52;;;8.95;;
66946;SDS011;53853;51.982;5.928;2023-03-21T04:58:41;10.48;;;7.10;;
66946;SDS011;53853;51.982;5.928;2023-03-21T05:01:13;11.57;;;6.78;;
66946;SDS011;53853;51.982;5.928;2023-03-21T05:03:45;8.85;;;6.88;;
66946;SDS011;53853;51.982;5.928;2023-03-21T05:06:15;11.90;;;7.28;;
66946;SDS011;53853;51.982;5.928;2023-03-21T05:08:45;8.77;;;6.63;;
66946;SDS011;53853;51.982;5.928;2023-03-21T05:11:15;10.70;;;7.45;;
66946;SDS011;53853;51.982;5.928;2023-03-21T05:13:48;10.13;;;6.20;;
66946;SDS011;53853;51.982;5.928;2023-03-21T05:16:18;9.77;;;6.88;;
66946;SDS011;53853;51.982;5.928;2023-03-21T05:18:52;10.38;;;6.53;;
66946;SDS011;53853;51.982;5.928;2023-03-21T05:21:24;13.40;;;7.57;;
66946;SDS011;53853;51.982;5.928;2023-03-21T05:23:58;13.30;;;8.63;;
66946;SDS011;53853;51.982;5.928;2023-03-21T05:26:30;12.40;;;7.75;;
66946;SDS011;53853;51.982;5.928;2023-03-21T05:29:14;10.50;;;6.97;;
66946;SDS011;53853;51.982;5.928;2023-03-21T05:31:51;18.30;;;10.88;;
66946;SDS011;53853;51.982;5.928;2023-03-21T05:34:21;14.23;;;9.35;;
66946;SDS011;53853;51.982;5.928;2023-03-21T05:36:52;14.88;;;10.10;;
66946;SDS011;53853;51.982;5.928;2023-03-21T05:39:26;10.98;;;7.28;;
66946;SDS011;53853;51.982;5.928;2023-03-21T05:42:08;14.02;;;8.63;;
66946;SDS011;53853;51.982;5.928;2023-03-21T05:44:42;13.48;;;7.85;;
66946;SDS011;53853;51.982;5.928;2023-03-21T05:47:13;7.90;;;6.38;;
66946;SDS011;53853;51.982;5.928;2023-03-21T05:49:46;13.52;;;9.50;;
66946;SDS011;53853;51.982;5.928;2023-03-21T05:52:16;13.57;;;8.75;;
66946;SDS011;53853;51.982;5.928;2023-03-21T05:54:46;11.07;;;6.82;;
66946;SDS011;53853;51.982;5.928;2023-03-21T05:57:20;11.75;;;7.28;;
66946;SDS011;53853;51.982;5.928;2023-03-21T06:00:20;11.80;;;7.07;;
66946;SDS011;53853;51.982;5.928;2023-03-21T06:03:06;9.05;;;6.00;;
66946;SDS011;53853;51.982;5.928;2023-03-21T06:05:53;9.13;;;6.47;;
66946;SDS011;53853;51.982;5.928;2023-03-21T06:10:56;9.35;;;6.82;;
66946;SDS011;53853;51.982;5.928;2023-03-21T06:13:27;15.02;;;6.95;;
66946;SDS011;53853;51.982;5.928;2023-03-21T06:16:01;9.73;;;6.85;;
66946;SDS011;53853;51.982;5.928;2023-03-21T06:18:34;13.05;;;7.43;;
66946;SDS011;53853;51.982;5.928;2023-03-21T06:21:19;12.75;;;8.60;;
66946;SDS011;53853;51.982;5.928;2023-03-21T06:23:50;12.45;;;8.88;;
66946;SDS011;53853;51.982;5.928;2023-03-21T06:26:20;12.25;;;7.90;;
66946;SDS011;53853;51.982;5.928;2023-03-21T06:28:52;10.68;;;7.10;;
66946;SDS011;53853;51.982;5.928;2023-03-21T06:31:24;12.70;;;7.82;;
66946;SDS011;53853;51.982;5.928;2023-03-21T06:34:00;12.25;;;7.55;;
66946;SDS011;53853;51.982;5.928;2023-03-21T06:36:31;13.35;;;7.28;;
66946;SDS011;53853;51.982;5.928;2023-03-21T06:39:01;12.63;;;7.80;;
66946;SDS011;53853;51.982;5.928;2023-03-21T06:41:36;11.45;;;7.07;;
66946;SDS011;53853;51.982;5.928;2023-03-21T06:44:06;11.98;;;7.53;;
66946;SDS011;53853;51.982;5.928;2023-03-21T06:46:47;9.32;;;6.85;;
66946;SDS011;53853;51.982;5.928;2023-03-21T06:49:18;9.55;;;7.15;;
66946;SDS011;53853;51.982;5.928;2023-03-21T06:51:48;14.35;;;9.45;;
66946;SDS011;53853;51.982;5.928;2023-03-21T06:54:20;13.57;;;8.65;;
66946;SDS011;53853;51.982;5.928;2023-03-21T06:56:57;10.90;;;6.60;;
66946;SDS011;53853;51.982;5.928;2023-03-21T06:59:31;11.88;;;7.35;;
66946;SDS011;53853;51.982;5.928;2023-03-21T07:02:07;11.40;;;7.60;;
66946;SDS011;53853;51.982;5.928;2023-03-21T07:04:44;12.85;;;6.75;;
66946;SDS011;53853;51.982;5.928;2023-03-21T07:07:18;10.93;;;7.20;;
66946;SDS011;53853;51.982;5.928;2023-03-21T07:09:51;11.60;;;7.07;;
66946;SDS011;53853;51.982;5.928;2023-03-21T07:12:22;9.70;;;6.57;;
66946;SDS011;53853;51.982;5.928;2023-03-21T07:15:11;9.35;;;6.10;;
66946;SDS011;53853;51.982;5.928;2023-03-21T07:17:46;9.82;;;7.45;;
66946;SDS011;53853;51.982;5.928;2023-03-21T07:20:16;9.48;;;6.32;;
66946;SDS011;53853;51.982;5.928;2023-03-21T07:22:46;11.13;;;6.75;;
66946;SDS011;53853;51.982;5.928;2023-03-21T07:25:16;12.07;;;7.13;;
66946;SDS011;53853;51.982;5.928;2023-03-21T07:27:47;11.77;;;7.57;;
66946;SDS011;53853;51.982;5.928;2023-03-21T07:30:17;14.80;;;9.18;;
66946;SDS011;53853;51.982;5.928;2023-03-21T07:32:51;13.75;;;8.60;;
66946;SDS011;53853;51.982;5.928;2023-03-21T07:35:21;15.07;;;9.23;;
66946;SDS011;53853;51.982;5.928;2023-03-21T07:37:51;9.43;;;6.40;;
66946;SDS011;53853;51.982;5.928;2023-03-21T07:40:22;13.45;;;8.50;;
66946;SDS011;53853;51.982;5.928;2023-03-21T07:42:52;11.35;;;6.78;;
66946;SDS011;53853;51.982;5.928;2023-03-21T07:45:32;11.18;;;7.50;;
66946;SDS011;53853;51.982;5.928;2023-03-21T07:48:08;13.05;;;6.63;;
66946;SDS011;53853;51.982;5.928;2023-03-21T07:50:38;15.55;;;7.18;;
66946;SDS011;53853;51.982;5.928;2023-03-21T07:53:08;15.95;;;8.48;;
66946;SDS011;53853;51.982;5.928;2023-03-21T07:55:38;11.82;;;6.50;;
66946;SDS011;53853;51.982;5.928;2023-03-21T07:58:08;12.75;;;6.90;;
66946;SDS011;53853;51.982;5.928;2023-03-21T08:00:38;14.38;;;8.43;;
66946;SDS011;53853;51.982;5.928;2023-03-21T08:03:10;12.45;;;7.70;;
66946;SDS011;53853;51.982;5.928;2023-03-21T08:05:40;13.48;;;8.52;;
66946;SDS011;53853;51.982;5.928;2023-03-21T08:08:10;15.60;;;8.05;;
66946;SDS011;53853;51.982;5.928;2023-03-21T08:10:41;19.70;;;8.90;;
66946;SDS011;53853;51.982;5.928;2023-03-21T08:13:11;10.95;;;7.78;;
66946;SDS011;53853;51.982;5.928;2023-03-21T08:15:41;17.25;;;8.23;;
66946;SDS011;53853;51.982;5.928;2023-03-21T08:18:14;16.15;;;7.68;;
66946;SDS011;53853;51.982;5.928;2023-03-21T08:20:44;10.35;;;6.95;;
66946;SDS011;53853;51.982;5.928;2023-03-21T08:23:14;16.55;;;7.95;;
66946;SDS011;53853;51.982;5.928;2023-03-21T08:25:43;12.20;;;7.78;;
66946;SDS011;53853;51.982;5.928;2023-03-21T08:28:14;14.57;;;7.13;;
66946;SDS011;53853;51.982;5.928;2023-03-21T08:30:44;11.98;;;7.03;;
66946;SDS011;53853;51.982;5.928;2023-03-21T08:33:16;10.27;;;6.10;;
66946;SDS011;53853;51.982;5.928;2023-03-21T08:35:46;15.13;;;7.78;;
66946;SDS011;53853;51.982;5.928;2023-03-21T08:38:16;17.40;;;7.13;;
66946;SDS011;53853;51.982;5.928;2023-03-21T08:40:46;9.80;;;6.22;;
66946;SDS011;53853;51.982;5.928;2023-03-21T08:43:17;17.10;;;7.82;;
66946;SDS011;53853;51.982;5.928;2023-03-21T08:45:47;13.95;;;7.70;;
66946;SDS011;53853;51.982;5.928;2023-03-21T08:48:20;11.70;;;6.00;;
66946;SDS011;53853;51.982;5.928;2023-03-21T08:50:50;16.17;;;7.38;;
66946;SDS011;53853;51.982;5.928;2023-03-21T08:53:20;14.82;;;7.60;;
66946;SDS011;53853;51.982;5.928;2023-03-21T08:55:53;10.02;;;6.60;;
66946;SDS011;53853;51.982;5.928;2023-03-21T08:58:23;13.60;;;7.60;;
66946;SDS011;53853;51.982;5.928;2023-03-21T09:00:53;11.60;;;6.38;;
66946;SDS011;53853;51.982;5.928;2023-03-21T09:03:25;12.20;;;6.18;;
66946;SDS011;53853;51.982;5.928;2023-03-21T09:05:55;13.50;;;6.93;;
66946;SDS011;53853;51.982;5.928;2023-03-21T09:08:27;12.85;;;5.75;;
66946;SDS011;53853;51.982;5.928;2023-03-21T09:10:57;12.65;;;6.85;;
66946;SDS011;53853;51.982;5.928;2023-03-21T09:13:27;10.70;;;7.25;;
66946;SDS011;53853;51.982;5.928;2023-03-21T09:15:57;9.73;;;5.32;;
66946;SDS011;53853;51.982;5.928;2023-03-21T09:18:30;8.73;;;5.15;;
66946;SDS011;53853;51.982;5.928;2023-03-21T09:21:13;11.15;;;5.97;;
66946;SDS011;53853;51.982;5.928;2023-03-21T09:23:45;8.50;;;5.78;;
66946;SDS011;53853;51.982;5.928;2023-03-21T09:26:17;6.93;;;5.18;;
66946;SDS011;53853;51.982;5.928;2023-03-21T09:28:48;6.55;;;4.22;;
66946;SDS011;53853;51.982;5.928;2023-03-21T09:31:18;8.18;;;4.70;;
66946;SDS011;53853;51.982;5.928;2023-03-21T09:33:52;13.65;;;7.22;;
66946;SDS011;53853;51.982;5.928;2023-03-21T09:36:23;11.35;;;6.13;;
66946;SDS011;53853;51.982;5.928;2023-03-21T09:41:32;9.57;;;4.63;;
66946;SDS011;53853;51.982;5.928;2023-03-21T09:44:21;8.27;;;5.45;;
66946;SDS011;53853;51.982;5.928;2023-03-21T09:47:04;9.68;;;5.20;;
66946;SDS011;53853;51.982;5.928;2023-03-21T09:49:48;10.77;;;5.90;;
66946;SDS011;53853;51.982;5.928;2023-03-21T09:52:25;10.40;;;6.03;;
66946;SDS011;53853;51.982;5.928;2023-03-21T09:55:00;12.82;;;6.55;;
66946;SDS011;53853;51.982;5.928;2023-03-21T09:57:45;8.35;;;4.97;;
66946;SDS011;53853;51.982;5.928;2023-03-21T10:00:20;7.32;;;4.57;;
66946;SDS011;53853;51.982;5.928;2023-03-21T10:02:56;7.93;;;5.53;;
66946;SDS011;53853;51.982;5.928;2023-03-21T10:05:34;9.18;;;5.35;;
66946;SDS011;53853;51.982;5.928;2023-03-21T10:08:12;7.63;;;4.65;;
66946;SDS011;53853;51.982;5.928;2023-03-21T10:10:48;11.15;;;6.32;;
66946;SDS011;53853;51.982;5.928;2023-03-21T10:13:21;12.05;;;5.63;;
66946;SDS011;53853;51.982;5.928;2023-03-21T10:15:55;7.72;;;5.10;;
66946;SDS011;53853;51.982;5.928;2023-03-21T10:18:28;9.02;;;4.80;;
66946;SDS011;53853;51.982;5.928;2023-03-21T10:21:01;8.27;;;5.13;;
66946;SDS011;53853;51.982;5.928;2023-03-21T10:23:33;9.85;;;4.90;;
66946;SDS011;53853;51.982;5.928;2023-03-21T10:26:04;8.52;;;5.25;;
66946;SDS011;53853;51.982;5.928;2023-03-21T10:28:36;9.85;;;5.55;;
66946;SDS011;53853;51.982;5.928;2023-03-21T10:31:12;8.60;;;5.43;;
66946;SDS011;53853;51.982;5.928;2023-03-21T10:33:45;9.85;;;5.40;;
66946;SDS011;53853;51.982;5.928;2023-03-21T10:36:20;6.55;;;4.65;;
66946;SDS011;53853;51.982;5.928;2023-03-21T10:38:53;12.98;;;6.97;;
66946;SDS011;53853;51.982;5.928;2023-03-21T10:41:29;11.07;;;6.85;;
66946;SDS011;53853;51.982;5.928;2023-03-21T10:44:06;6.65;;;4.50;;
66946;SDS011;53853;51.982;5.928;2023-03-21T10:46:47;9.77;;;6.53;;
66946;SDS011;53853;51.982;5.928;2023-03-21T10:49:20;7.88;;;4.63;;
66946;SDS011;53853;51.982;5.928;2023-03-21T10:51:55;8.68;;;4.55;;
66946;SDS011;53853;51.982;5.928;2023-03-21T10:54:27;7.32;;;4.70;;
66946;SDS011;53853;51.982;5.928;2023-03-21T10:57:00;10.52;;;5.20;;
66946;SDS011;53853;51.982;5.928;2023-03-21T11:02:04;9.05;;;6.03;;
66946;SDS011;53853;51.982;5.928;2023-03-21T11:04:43;8.50;;;4.38;;
66946;SDS011;53853;51.982;5.928;2023-03-21T11:07:16;13.90;;;5.93;;
66946;SDS011;53853;51.982;5.928;2023-03-21T11:09:49;8.90;;;5.10;;
66946;SDS011;53853;51.982;5.928;2023-03-21T11:17:41;12.40;;;6.35;;
66946;SDS011;53853;51.982;5.928;2023-03-21T11:20:16;14.45;;;6.28;;
66946;SDS011;53853;51.982;5.928;2023-03-21T11:22:49;8.52;;;5.72;;
66946;SDS011;53853;51.982;5.928;2023-03-21T11:25:25;12.02;;;5.70;;
66946;SDS011;53853;51.982;5.928;2023-03-21T11:28:04;12.75;;;6.13;;
66946;SDS011;53853;51.982;5.928;2023-03-21T11:33:16;13.80;;;5.88;;
66946;SDS011;53853;51.982;5.928;2023-03-21T11:35:58;10.43;;;4.68;;
66946;SDS011;53853;51.982;5.928;2023-03-21T11:38:35;7.75;;;5.30;;
66946;SDS011;53853;51.982;5.928;2023-03-21T11:41:07;12.48;;;6.82;;
66946;SDS011;53853;51.982;5.928;2023-03-21T11:43:37;9.32;;;4.97;;
66946;SDS011;53853;51.982;5.928;2023-03-21T11:46:07;9.80;;;5.22;;
66946;SDS011;53853;51.982;5.928;2023-03-21T11:48:41;8.27;;;5.18;;
66946;SDS011;53853;51.982;5.928;2023-03-21T11:51:16;10.25;;;5.85;;
66946;SDS011;53853;51.982;5.928;2023-03-21T11:53:59;9.55;;;5.28;;
66946;SDS011;53853;51.982;5.928;2023-03-21T11:56:37;8.10;;;5.55;;
66946;SDS011;53853;51.982;5.928;2023-03-21T11:59:20;10.52;;;6.38;;
66946;SDS011;53853;51.982;5.928;2023-03-21T12:02:09;10.18;;;5.60;;
66946;SDS011;53853;51.982;5.928;2023-03-21T12:04:53;9.70;;;5.68;;
66946;SDS011;53853;51.982;5.928;2023-03-21T12:07:35;8.23;;;6.05;;
66946;SDS011;53853;51.982;5.928;2023-03-21T12:10:27;10.07;;;5.22;;
66946;SDS011;53853;51.982;5.928;2023-03-21T12:13:03;14.55;;;5.85;;
66946;SDS011;53853;51.982;5.928;2023-03-21T12:15:46;10.90;;;6.32;;
66946;SDS011;53853;51.982;5.928;2023-03-21T12:18:28;11.52;;;5.25;;
66946;SDS011;53853;51.982;5.928;2023-03-21T12:21:22;11.60;;;5.57;;
66946;SDS011;53853;51.982;5.928;2023-03-21T12:24:02;10.23;;;5.85;;
66946;SDS011;53853;51.982;5.928;2023-03-21T12:26:42;8.65;;;5.78;;
66946;SDS011;53853;51.982;5.928;2023-03-21T12:29:25;9.27;;;5.35;;
66946;SDS011;53853;51.982;5.928;2023-03-21T12:32:06;12.23;;;5.97;;
66946;SDS011;53853;51.982;5.928;2023-03-21T12:34:52;10.60;;;5.97;;
66946;SDS011;53853;51.982;5.928;2023-03-21T12:37:36;8.02;;;5.00;;
66946;SDS011;53853;51.982;5.928;2023-03-21T12:40:15;8.77;;;5.07;;
66946;SDS011;53853;51.982;5.928;2023-03-21T12:43:04;7.82;;;5.10;;
66946;SDS011;53853;51.982;5.928;2023-03-21T12:46:00;6.82;;;4.53;;
66946;SDS011;53853;51.982;5.928;2023-03-21T12:48:36;9.35;;;5.03;;
66946;SDS011;53853;51.982;5.928;2023-03-21T12:51:12;7.90;;;4.82;;
66946;SDS011;53853;51.982;5.928;2023-03-21T12:53:50;11.75;;;5.70;;
66946;SDS011;53853;51.982;5.928;2023-03-21T12:56:28;10.07;;;4.63;;
66946;SDS011;53853;51.982;5.928;2023-03-21T12:59:05;8.20;;;5.10;;
66946;SDS011;53853;51.982;5.928;2023-03-21T13:01:41;9.15;;;4.78;;
66946;SDS011;53853;51.982;5.928;2023-03-21T13:07:02;7.97;;;4.80;;
66946;SDS011;53853;51.982;5.928;2023-03-21T13:09:36;7.93;;;4.47;;
66946;SDS011;53853;51.982;5.928;2023-03-21T13:12:14;10.55;;;5.90;;
66946;SDS011;53853;51.982;5.928;2023-03-21T13:14:58;11.82;;;5.70;;
66946;SDS011;53853;51.982;5.928;2023-03-21T13:17:35;10.20;;;5.00;;
66946;SDS011;53853;51.982;5.928;2023-03-21T13:20:12;7.80;;;4.05;;
66946;SDS011;53853;51.982;5.928;2023-03-21T13:22:50;9.25;;;5.90;;
66946;SDS011;53853;51.982;5.928;2023-03-21T13:25:20;8.30;;;4.38;;
66946;SDS011;53853;51.982;5.928;2023-03-21T13:27:53;8.82;;;5.15;;
66946;SDS011;53853;51.982;5.928;2023-03-21T13:30:31;7.60;;;4.68;;
66946;SDS011;53853;51.982;5.928;2023-03-21T13:33:04;9.47;;;4.10;;
66946;SDS011;53853;51.982;5.928;2023-03-21T13:35:39;8.77;;;5.18;;
66946;SDS011;53853;51.982;5.928;2023-03-21T13:38:12;11.95;;;5.72;;
66946;SDS011;53853;51.982;5.928;2023-03-21T13:40:46;12.93;;;5.32;;
66946;SDS011;53853;51.982;5.928;2023-03-21T13:43:34;10.90;;;4.90;;
66946;SDS011;53853;51.982;5.928;2023-03-21T13:46:13;8.45;;;5.15;;
66946;SDS011;53853;51.982;5.928;2023-03-21T13:49:12;7.03;;;3.97;;
66946;SDS011;53853;51.982;5.928;2023-03-21T13:51:53;7.28;;;4.10;;
66946;SDS011;53853;51.982;5.928;2023-03-21T13:57:20;9.13;;;4.40;;
66946;SDS011;53853;51.982;5.928;2023-03-21T14:00:16;8.77;;;4.47;;
66946;SDS011;53853;51.982;5.928;2023-03-21T14:02:55;7.80;;;4.43;;
66946;SDS011;53853;51.982;5.928;2023-03-21T14:05:28;7.72;;;4.55;;
66946;SDS011;53853;51.982;5.928;2023-03-21T14:07:59;8.27;;;4.20;;
66946;SDS011;53853;51.982;5.928;2023-03-21T14:10:33;18.45;;;5.78;;
66946;SDS011;53853;51.982;5.928;2023-03-21T14:13:05;10.80;;;5.23;;
66946;SDS011;53853;51.982;5.928;2023-03-21T14:15:37;7.20;;;4.40;;
66946;SDS011;53853;51.982;5.928;2023-03-21T14:18:15;7.80;;;4.43;;
66946;SDS011;53853;51.982;5.928;2023-03-21T14:20:50;9.82;;;4.55;;
66946;SDS011;53853;51.982;5.928;2023-03-21T14:23:21;10.10;;;5.05;;
66946;SDS011;53853;51.982;5.928;2023-03-21T14:25:52;9.38;;;4.40;;
66946;SDS011;53853;51.982;5.928;2023-03-21T14:28:23;10.13;;;6.03;;
66946;SDS011;53853;51.982;5.928;2023-03-21T14:30:55;11.80;;;4.53;;
66946;SDS011;53853;51.982;5.928;2023-03-21T14:33:30;8.50;;;4.65;;
66946;SDS011;53853;51.982;5.928;2023-03-21T14:36:05;7.93;;;4.38;;
66946;SDS011;53853;51.982;5.928;2023-03-21T14:38:40;8.50;;;4.65;;
66946;SDS011;53853;51.982;5.928;2023-03-21T14:41:18;10.57;;;4.80;;
66946;SDS011;53853;51.982;5.928;2023-03-21T14:44:00;8.02;;;4.75;;
66946;SDS011;53853;51.982;5.928;2023-03-21T14:46:32;6.30;;;4.13;;
66946;SDS011;53853;51.982;5.928;2023-03-21T14:49:16;9.02;;;5.55;;
66946;SDS011;53853;51.982;5.928;2023-03-21T14:51:49;9.60;;;4.05;;
66946;SDS011;53853;51.982;5.928;2023-03-21T14:54:21;8.60;;;4.45;;
66946;SDS011;53853;51.982;5.928;2023-03-21T14:56:52;6.82;;;4.25;;
66946;SDS011;53853;51.982;5.928;2023-03-21T14:59:29;7.78;;;4.55;;
66946;SDS011;53853;51.982;5.928;2023-03-21T15:02:02;6.75;;;4.43;;
66946;SDS011;53853;51.982;5.928;2023-03-21T15:04:43;6.97;;;3.80;;
66946;SDS011;53853;51.982;5.928;2023-03-21T15:07:26;7.15;;;4.10;;
66946;SDS011;53853;51.982;5.928;2023-03-21T15:09:57;9.55;;;4.05;;
66946;SDS011;53853;51.982;5.928;2023-03-21T15:12:29;7.25;;;4.18;;
66946;SDS011;53853;51.982;5.928;2023-03-21T15:15:00;8.15;;;4.90;;
66946;SDS011;53853;51.982;5.928;2023-03-21T15:17:30;7.80;;;3.90;;
66946;SDS011;53853;51.982;5.928;2023-03-21T15:20:03;6.97;;;3.63;;
66946;SDS011;53853;51.982;5.928;2023-03-21T15:22:36;6.13;;;3.97;;
66946;SDS011;53853;51.982;5.928;2023-03-21T15:25:10;8.48;;;4.40;;
66946;SDS011;53853;51.982;5.928;2023-03-21T15:27:44;8.63;;;3.88;;
66946;SDS011;53853;51.982;5.928;2023-03-21T15:30:17;7.95;;;4.65;;
66946;SDS011;53853;51.982;5.928;2023-03-21T15:35:24;7.10;;;4.22;;
66946;SDS011;53853;51.982;5.928;2023-03-21T15:38:03;7.43;;;4.25;;
66946;SDS011;53853;51.982;5.928;2023-03-21T15:40:33;8.23;;;4.95;;
66946;SDS011;53853;51.982;5.928;2023-03-21T15:43:04;7.03;;;4.82;;
66946;SDS011;53853;51.982;5.928;2023-03-21T15:45:45;7.97;;;5.25;;
66946;SDS011;53853;51.982;5.928;2023-03-21T15:48:17;9.43;;;5.10;;
66946;SDS011;53853;51.982;5.928;2023-03-21T15:50:58;7.28;;;4.13;;